Seavoyager — 9HUM8 — position and weather

sailwx.info

Track history (hours):
 
Tides and Currents Weather Stations Pressure Air Temp Water Temp Dewpoint Dewpoint Depression Visibility Wind Speed Wind Dir Waves Ship Positions

Seavoyager

Last reported at 2016-Dec-03 00:31 UTC. Time now 2016-Dec-03 02:33 UTC.
Position N 37°21' E 024°09'.

Length 273 m; draft 15.8 m.

Type: Tanker. MMSI: 256439000.

Date/timePositionNaut miles runAvg speedWind from/ knotsBaromVisibWave heightAir tempDewpointWater temp
2016-Dec-03 00:31N 37°21' E 024°09'  
2016-Nov-23 23:24N 44°26' E 037°25'1113.3
2016-Nov-23 22:33N 44°31' E 037°38'7 6.7
2016-Nov-23 21:33N 44°37' E 037°44'1 0.7
2016-Nov-23 20:33N 44°37' E 037°44'0 0.5
2016-Nov-23 19:33N 44°37' E 037°45'1 0.9
2016-Nov-23 18:33N 44°37' E 037°44'4 3.6
2016-Nov-23 17:33N 44°36' E 037°39'2 0.5
2016-Nov-23 12:28N 44°38' E 037°38'0 0.0
2016-Nov-23 10:19N 44°38' E 037°38'0 0.1
2016-Nov-23 09:25N 44°38' E 037°38'  
Track history (hours):
 
Tides and Currents Weather Stations Pressure Air Temp Water Temp Dewpoint Dewpoint Depression Visibility Wind Speed Wind Dir Waves Ship Positions

Seavoyager

Last reported at 2016-Dec-03 00:31 UTC. Time now 2016-Dec-03 02:33 UTC.
Position N 37°21' E 024°09'.

Length 273 m; draft 15.8 m.

Type: Tanker. MMSI: 256439000.

Date/timePositionNaut miles runAvg speedWind from/ knotsBaromVisibWave heightAir tempDewpointWater temp
2016-Dec-03 00:31N 37°21' E 024°09'  
2016-Nov-23 23:24N 44°26' E 037°25'1113.3
2016-Nov-23 22:33N 44°31' E 037°38'7 6.7
2016-Nov-23 21:33N 44°37' E 037°44'1 0.7
2016-Nov-23 20:33N 44°37' E 037°44'0 0.5
2016-Nov-23 19:33N 44°37' E 037°45'1 0.9
2016-Nov-23 18:33N 44°37' E 037°44'4 3.6
2016-Nov-23 17:33N 44°36' E 037°39'2 0.5
2016-Nov-23 12:28N 44°38' E 037°38'0 0.0
2016-Nov-23 10:19N 44°38' E 037°38'0 0.1
2016-Nov-23 09:25N 44°38' E 037°38'  

Dump ship's entire track history